This is the latest recevied weather packets stored in our database for station/object IW0HP-3. If no packets are shown the sender has not sent any weather packets the latest 10 day(s).
| Time | Temp. | Humidity | Pressure | Rain* | Wind** | Luminosity | Snow |
|---|---|---|---|---|---|---|---|
| 1777198446 | 20° C | 31% | 1020.2 hPa | - | - | - | - |
| 1777197241 | 20° C | 31% | 1020.7 hPa | - | - | - | - |
| 1777196036 | 19.44° C | 38% | 1019.9 hPa | - | - | - | - |
| 1777194831 | 18.89° C | 40% | 1019.9 hPa | - | - | - | - |
| 1777192422 | 17.22° C | 48% | 1019.5 hPa | - | - | - | - |
| 1777191218 | 17.22° C | 48% | 1019.6 hPa | - | - | - | - |
| 1777190013 | 16.67° C | 51% | 1019.3 hPa | - | - | - | - |
| 1777188808 | 16.11° C | 52% | 1019.3 hPa | - | - | - | - |
| 1777186399 | 15.56° C | 55% | 1019.2 hPa | - | - | - | - |
| 1777186182 | 15.56° C | 55% | 1019.2 hPa | - | - | - | - |
| 1777184977 | 15° C | 56% | 1019.1 hPa | - | - | - | - |
| 1777183773 | 14.44° C | 57% | 1019 hPa | - | - | - | - |
| 1777182568 | 13.89° C | 60% | 1018.8 hPa | - | - | - | - |
| 1777181364 | 13.33° C | 62% | 1018.8 hPa | - | - | - | - |
| 1777180159 | 13.33° C | 63% | 1018.6 hPa | - | - | - | - |
| 1777178954 | 12.78° C | 64% | 1018.5 hPa | - | - | - | - |
| 1777177750 | 12.78° C | 65% | 1018.4 hPa | - | - | - | - |
| 1777176545 | 13.33° C | 63% | 1018.4 hPa | - | - | - | - |
| 1777175341 | 13.33° C | 64% | 1018.2 hPa | - | - | - | - |
| 1777174136 | 13.33° C | 63% | 1018.1 hPa | - | - | - | - |
| 1777172931 | 13.33° C | 63% | 1018 hPa | - | - | - | - |
| 1777171727 | 13.89° C | 63% | 1017.8 hPa | - | - | - | - |
| 1777170522 | 13.89° C | 61% | 1017.9 hPa | - | - | - | - |
| 1777169318 | 13.89° C | 61% | 1017.9 hPa | - | - | - | - |
| 1777168113 | 13.89° C | 60% | 1017.8 hPa | - | - | - | - |
* Rain since midnight (hover to see other rain measurements)
** Current wind speed in m/s (hover to see current wind gust speed)